Time;durP1;ratioP1;P1;durP2;ratioP2;P2;SDS_P1;SDS_P2;PMS_P1;PMS_P2;Temp;Humidity;BMP_temperature;BMP_pressure;BME280_temperature;BME280_humidity;BME280_pressure;Samples;Min_cycle;Max_cycle;Signal;HPM_P1;HPM_P2
2023/05/22 00:01:15;;;;;;;;;12.75;12.00;;;;;18.03;78.57;100454.22;146625;577;46012;-68
2023/05/22 00:04:28;;;;;;;;;16.00;13.50;;;;;18.01;78.21;100448.97;146618;662;46016;-67
2023/05/22 00:07:26;;;;;;;;;11.25;11.00;;;;;17.95;78.78;100439.25;146625;580;46028;-65
2023/05/22 00:10:26;;;;;;;;;12.50;11.00;;;;;17.99;77.73;100446.31;146621;566;46012;-67
2023/05/22 00:13:27;;;;;;;;;12.75;11.00;;;;;18.00;77.59;100444.56;146623;579;46012;-67
2023/05/22 00:16:25;;;;;;;;;12.00;10.25;;;;;17.98;77.22;100436.69;146621;604;46014;-68
2023/05/22 00:19:23;;;;;;;;;16.50;14.00;;;;;17.96;76.88;100435.75;146625;599;46021;-67
2023/05/22 00:22:27;;;;;;;;;14.00;13.25;;;;;17.96;77.42;100433.13;146619;569;46014;-66
2023/05/22 00:25:33;;;;;;;;;15.50;13.75;;;;;17.96;79.30;100450.63;146624;607;46025;-65
2023/05/22 00:28:32;;;;;;;;;14.50;10.00;;;;;17.90;78.72;100438.28;146622;677;46914;-65
2023/05/22 00:31:31;;;;;;;;;12.25;10.75;;;;;17.86;78.73;100449.59;146624;631;46012;-66
2023/05/22 00:34:35;;;;;;;;;13.25;13.00;;;;;17.86;78.64;100451.34;146620;642;46017;-65
2023/05/22 00:37:33;;;;;;;;;15.00;13.00;;;;;17.83;78.48;100443.41;146622;632;46010;-65
2023/05/22 00:40:48;;;;;;;;;12.50;11.50;;;;;17.76;79.04;100445.03;146617;653;46016;-65
2023/05/22 00:43:55;;;;;;;;;14.25;12.50;;;;;17.72;78.16;100438.81;146617;620;46021;-67
2023/05/22 00:46:50;;;;;;;;;13.50;13.50;;;;;17.72;77.67;100443.19;146618;580;46012;-68
2023/05/22 00:50:06;;;;;;;;;11.25;10.25;;;;;17.74;77.62;100431.00;146622;608;45020;-67
2023/05/22 00:53:00;;;;;;;;;11.00;10.00;;;;;17.77;77.83;100438.94;146616;616;46016;-65
2023/05/22 00:56:11;;;;;;;;;10.50;10.25;;;;;17.81;77.97;100435.50;146622;667;46010;-67
2023/05/22 00:59:03;;;;;;;;;13.00;10.25;;;;;17.82;77.72;100434.66;146614;589;46014;-65
2023/05/22 01:02:02;;;;;;;;;13.75;12.75;;;;;17.84;77.35;100435.56;146623;615;46010;-66
2023/05/22 01:05:01;;;;;;;;;10.75;10.00;;;;;17.81;77.53;100429.38;146615;600;46014;-66
2023/05/22 01:08:01;;;;;;;;;12.00;10.25;;;;;17.79;77.18;100426.75;146621;569;46020;-65
2023/05/22 01:11:00;;;;;;;;;11.75;11.50;;;;;17.82;77.81;100423.25;146619;716;46031;-65
2023/05/22 01:14:41;;;;;;;;;14.25;12.50;;;;;17.34;76.83;100335.91;146620;703;47020;-65
2023/05/22 01:18:24;;;;;;;;;14.75;10.50;;;;;17.87;76.66;100422.50;146617;609;46014;-65
2023/05/22 01:21:51;;;;;;;;;13.75;12.25;;;;;17.89;77.34;100419.91;146619;627;46021;-66
2023/05/22 01:25:25;;;;;;;;;14.75;14.00;;;;;17.89;76.24;100422.53;146615;574;47012;-66
2023/05/22 01:28:46;;;;;;;;;11.75;11.75;;;;;17.89;79.08;100420.78;146620;569;46020;-66
2023/05/22 01:32:01;;;;;;;;;14.50;13.00;;;;;17.79;78.58;100421.50;146614;612;46016;-65
2023/05/22 01:35:14;;;;;;;;;15.00;14.00;;;;;17.71;78.29;100413.44;146619;612;47012;-65
2023/05/22 01:38:23;;;;;;;;;12.50;12.00;;;;;17.66;78.29;100407.28;146613;563;47013;-65
2023/05/22 01:41:24;;;;;;;;;12.75;12.00;;;;;17.67;79.35;100406.41;146622;650;46021;-66
2023/05/22 01:44:28;;;;;;;;;14.00;12.00;;;;;17.67;79.05;100400.28;146618;691;46016;-65
2023/05/22 01:47:42;;;;;;;;;13.75;12.00;;;;;17.70;78.88;100393.34;146622;575;46020;-65
2023/05/22 01:50:47;;;;;;;;;11.25;10.00;;;;;17.72;79.47;100390.72;146614;614;46013;-64
2023/05/22 01:54:06;;;;;;;;;9.25;9.25;;;;;17.49;78.14;100346.66;146614;621;47020;-64
2023/05/22 01:57:28;;;;;;;;;12.75;11.75;;;;;17.75;76.59;100389.03;146621;572;46013;-66
2023/05/22 02:00:40;;;;;;;;;13.75;11.75;;;;;17.72;77.92;100382.87;146622;569;47010;-66
2023/05/22 02:03:43;;;;;;;;;15.00;13.00;;;;;17.75;77.97;100372.44;146615;723;46016;-66
2023/05/22 02:06:56;;;;;;;;;14.50;14.00;;;;;17.61;78.37;100355.59;146620;589;46020;-64
2023/05/22 02:09:55;;;;;;;;;11.00;11.00;;;;;17.67;78.96;100374.06;146616;596;46016;-64
2023/05/22 02:12:49;;;;;;;;;11.25;10.00;;;;;17.59;80.25;100368.66;146619;632;45021;-64
2023/05/22 02:16:04;;;;;;;;;11.50;10.25;;;;;17.50;80.79;100374.62;146617;630;46016;-64
2023/05/22 02:19:11;;;;;;;;;12.50;10.75;;;;;17.37;79.88;100372.66;146621;565;45020;-66
2023/05/22 02:22:41;;;;;;;;;11.50;10.25;;;;;17.37;77.90;100377.03;146616;688;46012;-66
2023/05/22 02:25:37;;;;;;;;;12.50;10.50;;;;;17.44;76.75;100376.25;146623;600;46010;-66
2023/05/22 02:28:50;;;;;;;;;12.25;10.75;;;;;17.54;75.77;100379.09;146619;569;46014;-66
2023/05/22 02:32:04;;;;;;;;;11.00;10.00;;;;;17.61;76.81;100373.97;146618;613;47010;-68
2023/05/22 02:35:18;;;;;;;;;13.25;11.00;;;;;17.66;77.72;100377.50;146617;625;46014;-67
2023/05/22 02:38:11;;;;;;;;;9.50;9.00;;;;;17.67;77.77;100374.94;146620;666;46020;-67
2023/05/22 02:41:06;;;;;;;;;9.00;8.75;;;;;17.68;77.46;100376.69;146618;567;46016;-67
2023/05/22 02:43:58;;;;;;;;;10.75;10.75;;;;;17.69;77.74;100378.44;146624;627;46020;-68
2023/05/22 02:47:06;;;;;;;;;11.50;10.25;;;;;17.70;76.82;100377.59;146613;608;46016;-67
2023/05/22 02:50:22;;;;;;;;;11.00;9.00;;;;;16.29;77.02;100126.28;146620;606;46010;-69
2023/05/22 02:53:23;;;;;;;;;14.00;11.00;;;;;17.71;77.92;100375.87;146620;572;46016;-68
2023/05/22 02:56:31;;;;;;;;;11.00;9.50;;;;;16.20;77.02;100117.34;146618;631;46011;-67
2023/05/22 02:59:37;;;;;;;;;13.50;12.25;;;;;17.67;76.75;100380.19;146617;572;46016;-64
2023/05/22 03:02:46;;;;;;;;;13.00;11.50;;;;;17.68;76.64;100378.44;146619;570;46020;-64
2023/05/22 03:05:39;;;;;;;;;10.75;10.00;;;;;17.71;78.09;100378.50;146617;666;46017;-65
2023/05/22 03:08:53;;;;;;;;;15.00;11.75;;;;;17.73;77.97;100387.28;146620;627;46010;-67
2023/05/22 03:12:04;;;;;;;;;12.75;11.25;;;;;15.05;76.52;99908.69;146615;569;46917;-65
2023/05/22 03:15:20;;;;;;;;;11.25;11.25;;;;;17.76;76.10;100369.84;146620;575;46012;-65
2023/05/22 03:18:21;;;;;;;;;9.75;9.25;;;;;17.79;75.07;100376.91;146615;580;46014;-65
2023/05/22 03:21:23;;;;;;;;;12.00;11.00;;;;;17.83;75.71;100383.97;146622;605;46020;-64
2023/05/22 03:24:31;;;;;;;;;11.75;10.75;;;;;17.87;75.07;100380.53;146616;593;46016;-65
2023/05/22 03:27:31;;;;;;;;;7.50;7.50;;;;;17.91;76.16;100381.47;146619;632;46021;-67
2023/05/22 03:30:34;;;;;;;;;13.75;10.75;;;;;17.96;75.74;100385.03;146620;667;46016;-66
2023/05/22 03:33:33;;;;;;;;;12.50;10.25;;;;;17.91;77.02;100379.75;146618;566;46010;-65
2023/05/22 03:36:25;;;;;;;;;11.00;11.00;;;;;17.80;76.36;100376.06;146616;586;46016;-65
2023/05/22 03:39:20;;;;;;;;;12.00;10.25;;;;;17.76;76.54;100379.47;146620;573;47010;-65
2023/05/22 03:42:25;;;;;;;;;12.25;11.00;;;;;15.98;76.65;100071.63;146609;586;46017;-65
2023/05/22 03:45:28;;;;;;;;;10.50;9.75;;;;;17.75;76.49;100373.31;146619;573;46020;-65
2023/05/22 03:48:30;;;;;;;;;13.25;11.00;;;;;17.79;76.17;100379.53;146617;676;46013;-65
2023/05/22 03:51:51;;;;;;;;;14.00;10.50;;;;;17.86;77.10;100389.25;146621;713;46010;-66
2023/05/22 03:55:20;;;;;;;;;10.50;10.00;;;;;17.86;77.66;100391.88;146615;720;46917;-65
2023/05/22 03:58:38;;;;;;;;;11.00;9.25;;;;;15.19;76.11;99947.25;146615;599;46020;-66
2023/05/22 04:01:45;;;;;;;;;13.75;10.75;;;;;17.73;77.97;100398.66;146619;631;46016;-66
2023/05/22 04:04:45;;;;;;;;;8.75;8.75;;;;;17.68;77.09;100387.19;146618;564;46020;-66
2023/05/22 04:08:02;;;;;;;;;9.25;8.75;;;;;17.73;76.04;100379.41;146621;576;46012;-65
2023/05/22 04:10:57;;;;;;;;;10.50;9.75;;;;;17.80;76.07;100380.41;146625;578;46010;-66
2023/05/22 04:14:09;;;;;;;;;11.00;10.50;;;;;17.89;74.78;100391.94;146617;595;46016;-65
2023/05/22 04:17:35;;;;;;;;;12.00;11.50;;;;;16.49;74.39;100142.34;146622;597;46010;-65
2023/05/22 04:20:56;;;;;;;;;9.75;8.50;;;;;18.05;74.32;100398.31;146617;659;46012;-64
2023/05/22 04:24:05;;;;;;;;;11.00;11.00;;;;;18.11;73.83;100397.53;146623;675;46010;-64
2023/05/22 04:27:21;;;;;;;;;4.75;4.50;;;;;16.34;73.06;100079.25;146616;629;46016;-64
2023/05/22 04:30:18;;;;;;;;;10.00;7.75;;;;;18.34;71.95;100408.34;146623;577;46020;-65
2023/05/22 04:33:16;;;;;;;;;12.75;11.00;;;;;18.41;72.10;100411.13;146616;569;46017;-66
2023/05/22 04:36:21;;;;;;;;;9.50;9.50;;;;;18.55;71.90;100400.78;146620;569;46020;-65
2023/05/22 04:39:25;;;;;;;;;10.50;9.75;;;;;18.73;70.96;100408.06;146617;595;46017;-65
2023/05/22 04:42:41;;;;;;;;;;;;;;;;;;;;;
2023/05/22 04:45:41;;;;;;;;;13.25;10.75;;;;;19.13;69.00;100419.94;146619;575;46016;-66
2023/05/22 04:48:42;;;;;;;;;10.75;9.00;;;;;19.25;69.09;100424.47;146614;577;46021;-65
2023/05/22 04:51:42;;;;;;;;;12.50;10.00;;;;;19.34;69.75;100419.28;146618;584;47012;-65
2023/05/22 04:54:50;;;;;;;;;;;;;;;;;;;;;
2023/05/22 04:58:10;;;;;;;;;12.75;11.00;;;;;19.55;68.17;100416.00;146617;593;46012;-64
2023/05/22 05:01:10;;;;;;;;;11.50;10.50;;;;;19.56;68.31;100411.62;146620;575;46011;-64
2023/05/22 05:04:06;;;;;;;;;9.50;9.00;;;;;19.61;70.28;100412.56;146613;578;46017;-66
2023/05/22 05:07:30;;;;;;;;;12.00;10.00;;;;;19.75;67.96;100416.25;146618;588;47012;-67
2023/05/22 05:10:41;;;;;;;;;11.25;8.75;;;;;19.83;67.40;100432.94;146610;634;46017;-64
2023/05/22 05:13:38;;;;;;;;;8.50;7.25;;;;;19.88;67.34;100432.12;146620;566;47012;-64
2023/05/22 05:16:41;;;;;;;;;9.00;7.00;;;;;18.50;67.63;100187.16;146620;686;47012;-65
2023/05/22 05:19:33;;;;;;;;;10.50;8.50;;;;;19.96;69.07;100428.66;146623;654;46010;-64
2023/05/22 05:22:36;;;;;;;;;10.00;10.00;;;;;19.98;68.55;100426.94;146618;600;46014;-64
2023/05/22 05:25:42;;;;;;;;;9.75;8.75;;;;;19.95;68.33;100433.94;146621;645;46012;-63
2023/05/22 05:28:39;;;;;;;;;9.00;8.00;;;;;19.91;69.16;100432.16;146617;690;46919;-63
2023/05/22 05:31:33;;;;;;;;;10.00;9.00;;;;;19.86;69.98;100428.59;146619;643;46020;-64
2023/05/22 05:34:35;;;;;;;;;8.00;7.75;;;;;19.87;70.46;100435.62;146617;579;46016;-64
2023/05/22 05:37:33;;;;;;;;;13.25;12.00;;;;;20.02;69.55;100438.38;146619;566;47010;-67
2023/05/22 05:40:46;;;;;;;;;10.75;9.00;;;;;18.91;68.12;100211.28;146616;573;46014;-65
2023/05/22 05:43:51;;;;;;;;;7.75;7.00;;;;;20.43;65.78;100448.31;146620;601;47010;-64
2023/05/22 05:47:00;;;;;;;;;9.00;7.75;;;;;20.43;64.87;100448.31;146619;623;46017;-66
2023/05/22 05:50:02;;;;;;;;;9.25;9.25;;;;;20.37;65.83;100448.28;146621;593;46010;-66
2023/05/22 05:53:07;;;;;;;;;11.50;11.00;;;;;20.33;66.40;100451.78;146620;671;46013;-66
2023/05/22 05:56:05;;;;;;;;;14.25;12.00;;;;;20.23;66.69;100454.34;146613;647;48021;-66
2023/05/22 05:58:58;;;;;;;;;11.75;11.00;;;;;20.15;67.37;100456.03;146615;654;46016;-66
2023/05/22 06:01:56;;;;;;;;;13.50;10.50;;;;;20.13;68.62;100460.41;146619;611;46021;-66
2023/05/22 06:05:04;;;;;;;;;;;;;;;;;;;;;
2023/05/22 06:08:04;;;;;;;;;9.00;8.67;;;;;20.05;66.16;100468.22;146620;635;46013;-65
2023/05/22 06:11:02;;;;;;;;;10.00;9.00;;;;;20.00;66.93;100464.69;146617;684;46029;-65
2023/05/22 06:14:11;;;;;;;;;10.00;8.00;;;;;19.99;66.37;100464.66;146623;569;46010;-66
2023/05/22 06:17:16;;;;;;;;;13.75;11.00;;;;;19.97;67.69;100466.41;146618;663;47013;-66
2023/05/22 06:20:18;;;;;;;;;10.25;9.25;;;;;20.00;69.57;100471.69;146619;697;46010;-66
2023/05/22 06:23:12;;;;;;;;;11.25;11.25;;;;;20.02;68.82;100467.31;146618;627;46016;-65
2023/05/22 06:26:14;;;;;;;;;10.50;10.00;;;;;20.04;69.28;100468.22;146621;713;46010;-64
2023/05/22 06:29:22;;;;;;;;;13.00;13.00;;;;;20.06;68.85;100467.37;146614;622;47014;-65
2023/05/22 06:32:40;;;;;;;;;12.00;11.50;;;;;19.64;69.62;100394.19;146618;567;46021;-63
2023/05/22 06:36:07;;;;;;;;;11.67;10.67;;;;;18.78;67.75;100238.25;146617;672;46016;-65
2023/05/22 06:39:26;;;;;;;;;10.33;9.00;;;;;19.64;67.61;100388.94;146618;566;46021;-65
2023/05/22 06:42:25;;;;;;;;;10.00;8.00;;;;;20.23;67.84;100480.66;146613;565;47918;-65
2023/05/22 06:45:30;;;;;;;;;11.00;10.00;;;;;20.28;68.06;100476.34;146622;635;46020;-65
2023/05/22 06:48:38;;;;;;;;;12.25;10.75;;;;;20.35;68.08;100485.16;146613;585;47014;-66
2023/05/22 06:51:36;;;;;;;;;11.33;10.00;;;;;20.40;66.77;100483.41;146620;620;46020;-66
2023/05/22 06:54:36;;;;;;;;;11.75;9.75;;;;;20.46;66.34;100482.59;146616;566;46016;-65
2023/05/22 06:57:33;;;;;;;;;10.25;10.25;;;;;20.49;66.27;100483.47;146623;569;46010;-65
2023/05/22 07:00:34;;;;;;;;;14.00;13.25;;;;;20.48;67.58;100488.75;146615;620;46919;-64
2023/05/22 07:03:37;;;;;;;;;16.25;11.00;;;;;20.48;66.69;100481.72;146617;563;46029;-66
2023/05/22 07:06:42;;;;;;;;;16.00;13.00;;;;;20.50;66.78;100482.62;146617;623;46012;-64
2023/05/22 07:09:40;;;;;;;;;10.25;9.00;;;;;20.47;65.28;100485.25;146622;634;46010;-65
2023/05/22 07:12:49;;;;;;;;;13.00;10.75;;;;;20.47;67.58;100485.25;146615;564;47012;-64
2023/05/22 07:15:47;;;;;;;;;10.67;9.00;;;;;20.43;66.29;100487.81;146619;691;46020;-65
2023/05/22 07:18:53;;;;;;;;;14.00;11.00;;;;;20.38;66.46;100500.09;146611;624;47916;-66
2023/05/22 07:21:48;;;;;;;;;11.00;11.00;;;;;20.35;66.77;100502.72;146618;570;46020;-65
2023/05/22 07:25:02;;;;;;;;;13.75;10.75;;;;;20.28;67.03;100501.78;146618;566;46012;-64
2023/05/22 07:28:07;;;;;;;;;12.25;11.50;;;;;20.20;67.35;100517.50;146619;636;46010;-66
2023/05/22 07:31:22;;;;;;;;;12.75;12.75;;;;;20.06;66.93;100527.91;146614;698;46017;-66
2023/05/22 07:34:32;;;;;;;;;13.00;12.00;;;;;20.00;67.48;100519.97;146618;569;46010;-66
2023/05/22 07:37:31;;;;;;;;;12.00;12.00;;;;;20.02;67.23;100512.06;146614;646;46917;-65
2023/05/22 07:40:35;;;;;;;;;11.25;10.50;;;;;20.05;68.19;100512.97;146619;609;46020;-65
2023/05/22 07:43:33;;;;;;;;;12.67;10.33;;;;;20.13;68.91;100514.81;146617;680;47014;-65
2023/05/22 07:46:34;;;;;;;;;11.25;9.25;;;;;20.21;68.96;100519.25;146618;583;46020;-66
2023/05/22 07:49:37;;;;;;;;;11.67;9.67;;;;;20.27;68.97;100514.03;146617;566;46919;-65
2023/05/22 07:52:32;;;;;;;;;11.00;11.00;;;;;20.36;69.72;100515.88;146621;666;46010;-65
2023/05/22 07:55:38;;;;;;;;;11.25;10.25;;;;;20.40;66.23;100520.28;146614;565;46016;-65
2023/05/22 07:58:48;;;;;;;;;;;;;;;;;;;;;
2023/05/22 08:02:03;;;;;;;;;9.50;7.00;;;;;19.07;66.71;100287.63;146619;565;46014;-65
2023/05/22 08:05:00;;;;;;;;;8.75;8.00;;;;;20.45;65.52;100522.97;146621;628;46010;-65
2023/05/22 08:08:10;;;;;;;;;8.50;7.00;;;;;20.56;63.34;100523.97;146616;588;46017;-65
2023/05/22 08:11:12;;;;;;;;;9.33;9.33;;;;;20.66;62.85;100519.66;146621;639;46020;-66
2023/05/22 08:14:20;;;;;;;;;9.00;9.00;;;;;20.18;61.47;100429.72;146618;612;47012;-66
2023/05/22 08:17:26;;;;;;;;;11.67;8.67;;;;;20.75;61.85;100535.53;146622;597;46020;-67
2023/05/22 08:20:37;;;;;;;;;22.25;17.25;;;;;20.79;63.87;100533.78;146620;568;46012;-65
2023/05/22 08:23:35;;;;;;;;;10.00;8.33;;;;;20.80;59.37;100531.16;146618;627;46020;-65
2023/05/22 08:26:50;;;;;;;;;9.33;8.33;;;;;20.75;61.26;100528.50;146615;583;46016;-65
2023/05/22 08:29:48;;;;;;;;;8.67;7.67;;;;;20.72;60.53;100536.38;146624;597;46037;-65
2023/05/22 08:32:42;;;;;;;;;9.67;8.67;;;;;20.73;61.47;100540.78;146620;598;46014;-65
2023/05/22 08:35:54;;;;;;;;;11.25;10.00;;;;;20.75;63.70;100532.91;146620;595;46020;-65
2023/05/22 08:38:52;;;;;;;;;12.00;9.67;;;;;20.84;64.16;100535.59;146618;589;46020;-65
2023/05/22 08:41:53;;;;;;;;;10.00;9.67;;;;;20.97;63.44;100539.19;146621;588;46020;-65
2023/05/22 08:44:51;;;;;;;;;10.00;10.00;;;;;21.07;60.40;100540.09;146617;565;46017;-65
2023/05/22 08:47:57;;;;;;;;;11.67;9.00;;;;;21.30;60.41;100545.47;146615;634;48031;-65
2023/05/22 08:51:20;;;;;;;;;8.33;7.00;;;;;21.45;59.80;100542.94;146617;581;46919;-65
2023/05/22 08:54:42;;;;;;;;;7.00;5.33;;;;;20.09;60.59;100298.03;146620;585;46020;-65
2023/05/22 08:57:52;;;;;;;;;8.00;8.00;;;;;21.56;60.97;100529.81;146619;668;46917;-65
2023/05/22 09:00:47;;;;;;;;;9.50;7.00;;;;;21.60;59.78;100527.16;146622;619;46021;-65
2023/05/22 09:03:45;;;;;;;;;11.00;9.00;;;;;21.65;58.20;100536.00;146619;598;46016;-66
2023/05/22 09:06:53;;;;;;;;;10.00;8.00;;;;;21.68;60.16;100533.38;146621;653;46012;-65
2023/05/22 09:10:03;;;;;;;;;8.67;8.33;;;;;21.67;59.04;100530.69;146620;566;46012;-66
2023/05/22 09:13:32;;;;;;;;;9.50;8.25;;;;;21.70;60.77;100533.34;146620;655;47021;-67
2023/05/22 09:16:54;;;;;;;;;9.33;7.00;;;;;21.75;60.71;100528.97;146619;573;46014;-66
2023/05/22 09:20:06;;;;;;;;;10.50;9.00;;;;;21.80;59.52;100535.13;146623;597;46010;-66
2023/05/22 09:23:07;;;;;;;;;12.75;8.50;;;;;21.86;58.23;100544.81;146617;570;46012;-66
2023/05/22 09:26:17;;;;;;;;;10.33;8.00;;;;;21.86;57.96;100542.19;146620;573;46020;-66
2023/05/22 09:29:35;;;;;;;;;10.33;8.67;;;;;21.80;59.62;100540.41;146619;570;46013;-65
2023/05/22 09:32:30;;;;;;;;;8.00;8.00;;;;;21.77;60.40;100539.53;146703;563;46022;-66
2023/05/22 09:35:49;;;;;;;;;9.25;9.25;;;;;21.57;61.90;100500.78;146618;564;46016;-66
2023/05/22 09:39:00;;;;;;;;;10.00;8.33;;;;;21.76;60.19;100530.72;146619;658;46010;-66
2023/05/22 09:41:58;;;;;;;;;8.00;8.00;;;;;21.71;58.14;100539.50;146613;574;47012;-66
2023/05/22 09:45:26;;;;;;;;;10.00;9.00;;;;;21.53;60.06;100535.94;146618;602;46010;-66
2023/05/22 09:48:25;;;;;;;;;12.00;10.67;;;;;21.39;57.10;100549.06;146703;573;46022;-66
2023/05/22 09:52:18;;;;;;;;;;;;;;;;;;;;;
2023/05/22 09:55:29;;;;;;;;;10.67;10.33;;;;;21.38;60.70;100563.16;146622;659;46020;-65
2023/05/22 09:58:58;;;;;;;;;;;;;;;;;;;;;
2023/05/22 10:02:06;;;;;;;;;11.00;10.00;;;;;20.86;57.41;100488.16;146623;577;46010;-67
2023/05/22 10:05:20;;;;;;;;;10.67;10.00;;;;;21.27;61.20;100551.63;146620;615;46017;-66
2023/05/22 10:08:45;;;;;;;;;8.00;8.00;;;;;21.37;61.79;100545.56;146624;565;46020;-66
2023/05/22 10:11:59;;;;;;;;;;;;;;;;;;;;;
2023/05/22 10:15:06;;;;;;;;;11.00;9.33;;;;;21.42;63.03;100550.84;146626;602;46020;-66
2023/05/22 10:18:42;;;;;;;;;12.00;11.67;;;;;21.29;63.33;100541.09;146622;571;46012;-66
2023/05/22 10:21:49;;;;;;;;;10.00;9.00;;;;;21.35;63.93;100549.03;146624;640;47010;-67
2023/05/22 10:25:17;;;;;;;;;12.67;10.67;;;;;21.29;64.19;100552.50;146624;622;46012;-65
2023/05/22 10:28:30;;;;;;;;;;;;;;;;;;;;;
2023/05/22 10:31:51;;;;;;;;;12.33;8.00;;;;;21.26;64.57;100543.72;146619;571;46016;-66
2023/05/22 10:35:14;;;;;;;;;10.33;10.00;;;;;21.22;63.91;100541.06;146625;564;46020;-66
2023/05/22 10:39:10;;;;;;;;;12.50;11.50;;;;;20.06;63.90;100333.16;146617;570;45915;-66
2023/05/22 10:42:20;;;;;;;;;9.00;8.75;;;;;21.31;62.40;100555.16;146622;578;46020;-67
2023/05/22 10:45:38;;;;;;;;;9.50;9.50;;;;;21.29;63.77;100552.50;146622;570;46012;-66
2023/05/22 10:48:30;;;;;;;;;9.50;8.00;;;;;21.44;62.08;100555.25;146645;606;45011;-66
2023/05/22 10:52:14;;;;;;;;;8.67;8.33;;;;;21.57;62.02;100553.53;146640;622;45913;-66
2023/05/22 10:55:05;;;;;;;;;10.00;9.67;;;;;21.77;61.50;100548.31;146704;563;46014;-66
2023/05/22 10:58:20;;;;;;;;;10.33;8.00;;;;;21.96;61.00;100541.31;146619;630;47012;-65
2023/05/22 11:01:24;;;;;;;;;9.33;6.00;;;;;22.17;61.02;100544.91;146623;675;46010;-66
2023/05/22 11:04:41;;;;;;;;;8.00;6.67;;;;;22.00;59.45;100524.63;146617;688;46017;-67
2023/05/22 11:07:44;;;;;;;;;7.33;7.00;;;;;22.03;60.17;100550.16;146625;642;45031;-67
2023/05/22 11:11:09;;;;;;;;;8.33;7.00;;;;;21.98;60.04;100543.97;146615;599;47013;-66
2023/05/22 11:14:10;;;;;;;;;11.33;8.67;;;;;21.90;59.72;100551.91;146625;658;46010;-66
2023/05/22 11:17:08;;;;;;;;;9.50;8.50;;;;;21.80;59.84;100555.37;146616;581;46013;-66
2023/05/22 11:20:29;;;;;;;;;6.33;5.00;;;;;21.64;60.63;100555.31;146625;710;46010;-64
2023/05/22 11:23:23;;;;;;;;;6.67;6.67;;;;;21.49;60.42;100547.34;146615;573;46017;-66
2023/05/22 11:26:46;;;;;;;;;9.00;8.00;;;;;21.14;61.57;100515.53;146621;611;47014;-67
2023/05/22 11:29:43;;;;;;;;;8.67;6.00;;;;;21.27;60.31;100548.97;146619;629;47012;-65
2023/05/22 11:32:39;;;;;;;;;8.00;7.00;;;;;21.24;59.03;100556.88;146624;569;46039;-65
2023/05/22 11:35:41;;;;;;;;;8.00;6.00;;;;;21.18;61.60;100546.28;146618;575;46016;-65
2023/05/22 11:38:46;;;;;;;;;8.00;7.00;;;;;21.25;61.42;100558.66;146625;633;46021;-67
2023/05/22 11:41:53;;;;;;;;;6.33;6.33;;;;;21.34;61.77;100548.16;146618;574;46016;-67
2023/05/22 11:44:50;;;;;;;;;10.33;9.00;;;;;21.49;61.70;100544.72;146618;671;47010;-66
2023/05/22 11:47:52;;;;;;;;;7.75;7.25;;;;;21.50;61.60;100541.22;146617;690;46017;-66
2023/05/22 11:50:55;;;;;;;;;9.75;8.00;;;;;21.57;61.44;100553.53;146624;680;46031;-67
2023/05/22 11:53:57;;;;;;;;;8.33;7.33;;;;;21.78;60.89;100551.88;146616;597;46037;-66
2023/05/22 11:57:04;;;;;;;;;8.67;7.33;;;;;21.91;60.72;100549.25;146622;665;46037;-65
2023/05/22 12:00:17;;;;;;;;;8.00;7.00;;;;;22.02;59.41;100541.31;146619;567;46016;-66
2023/05/22 12:03:37;;;;;;;;;6.00;5.00;;;;;22.04;60.39;100538.72;146623;669;46020;-66
2023/05/22 12:06:32;;;;;;;;;9.33;8.33;;;;;22.22;59.10;100535.25;146616;693;46913;-67
2023/05/22 12:09:50;;;;;;;;;9.00;7.33;;;;;22.47;58.64;100533.47;146621;569;46021;-66
2023/05/22 12:12:46;;;;;;;;;10.33;8.67;;;;;22.62;57.92;100524.63;146620;580;47035;-70
2023/05/22 12:15:59;;;;;;;;;6.00;5.67;;;;;22.61;58.84;100518.47;146626;581;46010;-66
2023/05/22 12:19:15;;;;;;;;;8.33;7.33;;;;;22.60;58.72;100514.97;146618;574;46016;-67
2023/05/22 12:22:29;;;;;;;;;;;;;;;;;;;;;
2023/05/22 12:25:25;;;;;;;;;8.33;8.33;;;;;22.58;58.90;100524.63;146616;564;47014;-66
2023/05/22 12:28:45;;;;;;;;;12.00;9.00;;;;;22.60;59.79;100524.66;146621;585;46020;-65
2023/05/22 12:32:09;;;;;;;;;6.33;6.00;;;;;22.53;59.29;100484.16;146613;571;46017;-65
2023/05/22 12:35:05;;;;;;;;;6.00;5.67;;;;;22.91;57.62;100530.78;146623;598;47010;-68
2023/05/22 12:38:12;;;;;;;;;9.67;8.00;;;;;22.83;59.19;100509.66;146618;570;46033;-66
2023/05/22 12:41:14;;;;;;;;;6.33;5.67;;;;;21.76;58.91;100329.28;146616;671;46020;-68
2023/05/22 12:44:09;;;;;;;;;8.00;6.33;;;;;22.80;58.37;100520.22;146707;563;45023;-68
2023/05/22 12:47:26;;;;;;;;;8.00;7.00;;;;;22.71;59.18;100522.91;146621;590;47012;-66
2023/05/22 12:50:28;;;;;;;;;10.00;7.67;;;;;22.58;59.18;100523.75;146625;589;46021;-66
2023/05/22 12:53:40;;;;;;;;;8.00;7.33;;;;;22.44;60.25;100531.72;146621;622;46014;-66
2023/05/22 12:56:52;;;;;;;;;8.67;7.67;;;;;22.30;59.95;100528.19;146623;648;46010;-67
2023/05/22 12:59:40;;;;;;;;;7.00;7.00;;;;;22.14;59.57;100533.41;146706;582;45025;-67
2023/05/22 13:03:12;;;;;;;;;10.67;6.33;;;;;21.98;59.76;100534.28;146623;570;46016;-66
2023/05/22 13:06:17;;;;;;;;;;;;;;;;;;;;;
2023/05/22 13:09:20;;;;;;;;;10.00;8.00;;;;;21.71;61.29;100515.75;146619;569;47012;-68
2023/05/22 13:12:21;;;;;;;;;7.67;6.00;;;;;21.65;61.45;100516.62;146624;569;46014;-66
2023/05/22 13:15:22;;;;;;;;;8.67;6.67;;;;;21.63;61.46;100513.12;146617;655;47012;-65
2023/05/22 13:18:30;;;;;;;;;8.00;7.00;;;;;21.62;61.35;100511.31;146625;563;46010;-66
2023/05/22 13:21:30;;;;;;;;;9.25;7.50;;;;;21.61;60.68;100515.72;146618;705;46013;-67
2023/05/22 13:24:26;;;;;;;;;9.67;5.67;;;;;21.56;61.21;100514.84;146627;642;47010;-66
2023/05/22 13:27:26;;;;;;;;;9.00;9.00;;;;;21.51;60.99;100518.34;146618;599;46016;-66
2023/05/22 13:30:39;;;;;;;;;10.33;8.67;;;;;19.94;61.54;100245.34;146626;611;46010;-68
2023/05/22 13:34:07;;;;;;;;;9.00;6.67;;;;;21.50;61.42;100512.19;146620;639;46016;-66
2023/05/22 13:37:18;;;;;;;;;8.33;7.67;;;;;21.51;60.03;100510.44;146624;612;47010;-66
2023/05/22 13:40:22;;;;;;;;;9.67;9.67;;;;;21.52;59.67;100517.47;146617;592;46016;-66
2023/05/22 13:43:22;;;;;;;;;8.33;7.33;;;;;21.50;60.42;100516.59;146624;598;46038;-65
2023/05/22 13:46:32;;;;;;;;;9.00;7.00;;;;;21.44;60.99;100509.53;146706;567;46023;-66
2023/05/22 13:49:36;;;;;;;;;9.75;8.50;;;;;21.40;61.14;100526.22;146621;647;46012;-65
2023/05/22 13:52:46;;;;;;;;;6.50;6.50;;;;;21.31;61.13;100527.03;146624;581;46021;-66
2023/05/22 13:55:38;;;;;;;;;8.00;8.00;;;;;21.26;61.19;100522.63;146616;570;46016;-66
2023/05/22 13:58:47;;;;;;;;;7.67;7.67;;;;;21.30;60.97;100521.75;146621;564;46020;-66
2023/05/22 14:01:59;;;;;;;;;7.33;7.00;;;;;21.45;61.04;100525.34;146618;596;46917;-65
2023/05/22 14:04:54;;;;;;;;;7.25;7.25;;;;;21.57;60.80;100518.37;146623;610;46010;-67
2023/05/22 14:07:55;;;;;;;;;7.33;7.33;;;;;21.62;59.45;100512.25;146616;578;46016;-66
2023/05/22 14:11:07;;;;;;;;;8.33;7.67;;;;;21.64;59.68;100515.75;146619;636;46020;-66
2023/05/22 14:14:22;;;;;;;;;9.00;8.00;;;;;21.65;59.69;100513.97;146617;572;46033;-65
2023/05/22 14:17:20;;;;;;;;;9.25;8.00;;;;;21.59;59.22;100508.72;146623;574;46020;-66
2023/05/22 14:20:33;;;;;;;;;9.00;9.00;;;;;21.24;60.40;100469.84;146619;598;46016;-66
2023/05/22 14:23:46;;;;;;;;;8.67;8.67;;;;;21.38;60.91;100510.41;146619;581;46020;-66
2023/05/22 14:26:41;;;;;;;;;8.00;7.00;;;;;21.27;60.95;100516.47;146616;614;46019;-67
2023/05/22 14:29:56;;;;;;;;;8.00;7.00;;;;;21.18;61.80;100512.03;146615;582;47010;-67
2023/05/22 14:33:05;;;;;;;;;8.25;7.00;;;;;21.10;61.09;100514.63;146712;560;46015;-66
2023/05/22 14:36:30;;;;;;;;;8.00;7.00;;;;;20.95;61.71;100494.34;146625;601;46016;-66